sensor_id;sensor_type;location;lat;lon;timestamp;P1;P2;P0
26185;PMS7003;20067;48.764;9.176;2022-08-01T00:00:24;8.00;8.00;4.00
26185;PMS7003;20067;48.764;9.176;2022-08-01T00:02:50;9.75;9.25;4.00
26185;PMS7003;20067;48.764;9.176;2022-08-01T00:05:16;7.75;7.25;3.00
26185;PMS7003;20067;48.764;9.176;2022-08-01T00:07:41;6.25;6.25;4.00
26185;PMS7003;20067;48.764;9.176;2022-08-01T00:10:08;6.50;6.50;4.00
26185;PMS7003;20067;48.764;9.176;2022-08-01T00:12:36;8.00;7.75;3.75
26185;PMS7003;20067;48.764;9.176;2022-08-01T00:15:02;7.25;7.25;3.75
26185;PMS7003;20067;48.764;9.176;2022-08-01T00:17:29;8.50;8.50;4.00
26185;PMS7003;20067;48.764;9.176;2022-08-01T00:19:54;9.25;9.00;3.75
26185;PMS7003;20067;48.764;9.176;2022-08-01T00:22:20;5.25;5.00;2.50
26185;PMS7003;20067;48.764;9.176;2022-08-01T00:24:46;6.75;6.00;3.00
26185;PMS7003;20067;48.764;9.176;2022-08-01T00:27:11;7.25;6.00;3.00
26185;PMS7003;20067;48.764;9.176;2022-08-01T00:29:37;6.00;6.00;3.00
26185;PMS7003;20067;48.764;9.176;2022-08-01T00:32:02;8.00;7.75;4.00
26185;PMS7003;20067;48.764;9.176;2022-08-01T00:34:28;9.00;9.00;4.00
26185;PMS7003;20067;48.764;9.176;2022-08-01T00:36:54;7.25;7.00;3.00
26185;PMS7003;20067;48.764;9.176;2022-08-01T00:39:20;6.50;6.00;3.00
26185;PMS7003;20067;48.764;9.176;2022-08-01T00:41:45;9.00;8.75;3.00
26185;PMS7003;20067;48.764;9.176;2022-08-01T00:44:11;8.00;8.00;3.25
26185;PMS7003;20067;48.764;9.176;2022-08-01T00:46:36;10.25;10.00;4.00
26185;PMS7003;20067;48.764;9.176;2022-08-01T00:49:02;7.00;7.00;2.75
26185;PMS7003;20067;48.764;9.176;2022-08-01T00:51:28;6.50;6.00;3.00
26185;PMS7003;20067;48.764;9.176;2022-08-01T00:53:54;9.00;8.00;4.00
26185;PMS7003;20067;48.764;9.176;2022-08-01T00:56:20;8.00;6.00;3.00
26185;PMS7003;20067;48.764;9.176;2022-08-01T00:58:48;7.75;7.75;4.00
26185;PMS7003;20067;48.764;9.176;2022-08-01T01:01:14;9.50;8.25;3.00
26185;PMS7003;20067;48.764;9.176;2022-08-01T01:03:40;8.50;7.00;3.25
26185;PMS7003;20067;48.764;9.176;2022-08-01T01:08:46;8.00;8.00;3.00
26185;PMS7003;20067;48.764;9.176;2022-08-01T01:14:49;7.75;7.00;3.00
26185;PMS7003;20067;48.764;9.176;2022-08-01T01:17:24;8.50;8.50;3.50
26185;PMS7003;20067;48.764;9.176;2022-08-01T01:19:57;5.00;5.00;2.25
26185;PMS7003;20067;48.764;9.176;2022-08-01T01:22:36;8.00;8.00;3.75
26185;PMS7003;20067;48.764;9.176;2022-08-01T01:25:09;10.00;8.75;4.00
26185;PMS7003;20067;48.764;9.176;2022-08-01T01:30:28;8.75;8.00;4.00
26185;PMS7003;20067;48.764;9.176;2022-08-01T01:32:57;7.75;7.75;3.00
26185;PMS7003;20067;48.764;9.176;2022-08-01T01:35:28;9.25;9.00;3.25
26185;PMS7003;20067;48.764;9.176;2022-08-01T01:37:59;8.25;7.25;3.00
26185;PMS7003;20067;48.764;9.176;2022-08-01T01:40:28;8.00;8.00;3.00
26185;PMS7003;20067;48.764;9.176;2022-08-01T01:42:55;10.00;9.50;4.00
26185;PMS7003;20067;48.764;9.176;2022-08-01T01:45:25;9.00;8.00;3.00
26185;PMS7003;20067;48.764;9.176;2022-08-01T01:47:52;9.00;8.00;4.00
26185;PMS7003;20067;48.764;9.176;2022-08-01T01:50:20;10.25;9.25;4.00
26185;PMS7003;20067;48.764;9.176;2022-08-01T01:52:46;7.25;7.25;3.00
26185;PMS7003;20067;48.764;9.176;2022-08-01T01:55:14;7.75;7.75;3.00
26185;PMS7003;20067;48.764;9.176;2022-08-01T01:57:42;9.50;9.25;4.75
26185;PMS7003;20067;48.764;9.176;2022-08-01T02:00:10;10.00;8.00;4.00
26185;PMS7003;20067;48.764;9.176;2022-08-01T02:02:37;9.75;8.75;3.75
26185;PMS7003;20067;48.764;9.176;2022-08-01T02:05:05;9.50;8.00;4.00
26185;PMS7003;20067;48.764;9.176;2022-08-01T02:07:32;9.00;8.75;4.00
26185;PMS7003;20067;48.764;9.176;2022-08-01T02:10:02;8.50;8.50;5.00
26185;PMS7003;20067;48.764;9.176;2022-08-01T02:12:29;9.00;8.50;4.00
26185;PMS7003;20067;48.764;9.176;2022-08-01T02:14:57;8.25;8.25;4.00
26185;PMS7003;20067;48.764;9.176;2022-08-01T02:17:24;8.00;8.00;4.00
26185;PMS7003;20067;48.764;9.176;2022-08-01T02:19:51;8.50;8.50;4.25
26185;PMS7003;20067;48.764;9.176;2022-08-01T02:22:36;10.25;9.00;3.50
26185;PMS7003;20067;48.764;9.176;2022-08-01T02:25:10;11.50;9.00;3.75
26185;PMS7003;20067;48.764;9.176;2022-08-01T02:27:40;10.25;8.25;4.00
26185;PMS7003;20067;48.764;9.176;2022-08-01T02:30:26;9.75;8.50;4.75
26185;PMS7003;20067;48.764;9.176;2022-08-01T02:33:02;9.75;7.50;3.00
26185;PMS7003;20067;48.764;9.176;2022-08-01T02:35:35;9.00;8.25;4.00
26185;PMS7003;20067;48.764;9.176;2022-08-01T02:38:05;10.50;9.25;4.75
26185;PMS7003;20067;48.764;9.176;2022-08-01T02:40:35;7.75;6.75;3.00
26185;PMS7003;20067;48.764;9.176;2022-08-01T02:43:05;6.50;6.50;3.00
26185;PMS7003;20067;48.764;9.176;2022-08-01T02:45:31;9.00;7.25;3.00
26185;PMS7003;20067;48.764;9.176;2022-08-01T02:48:08;9.00;9.00;5.00
26185;PMS7003;20067;48.764;9.176;2022-08-01T02:50:36;9.50;8.75;4.00
26185;PMS7003;20067;48.764;9.176;2022-08-01T02:53:04;7.50;7.50;3.75
26185;PMS7003;20067;48.764;9.176;2022-08-01T02:55:32;8.25;7.75;3.00
26185;PMS7003;20067;48.764;9.176;2022-08-01T02:57:59;8.75;7.25;3.00
26185;PMS7003;20067;48.764;9.176;2022-08-01T03:00:27;9.25;9.25;4.00
26185;PMS7003;20067;48.764;9.176;2022-08-01T03:02:54;9.00;8.00;4.00
26185;PMS7003;20067;48.764;9.176;2022-08-01T03:05:22;9.00;8.25;3.75
26185;PMS7003;20067;48.764;9.176;2022-08-01T03:07:50;7.75;7.75;3.50
26185;PMS7003;20067;48.764;9.176;2022-08-01T03:10:18;9.75;9.75;4.75
26185;PMS7003;20067;48.764;9.176;2022-08-01T03:12:45;7.75;7.00;3.00
26185;PMS7003;20067;48.764;9.176;2022-08-01T03:15:13;9.00;8.50;3.75
26185;PMS7003;20067;48.764;9.176;2022-08-01T03:17:41;11.50;9.25;6.00
26185;PMS7003;20067;48.764;9.176;2022-08-01T03:20:10;8.50;8.50;4.00
26185;PMS7003;20067;48.764;9.176;2022-08-01T03:22:39;10.00;8.00;3.00
26185;PMS7003;20067;48.764;9.176;2022-08-01T03:25:07;8.00;7.00;4.00
26185;PMS7003;20067;48.764;9.176;2022-08-01T03:27:34;10.25;9.00;4.00
26185;PMS7003;20067;48.764;9.176;2022-08-01T03:30:03;8.50;8.50;4.00
26185;PMS7003;20067;48.764;9.176;2022-08-01T03:32:29;9.50;8.50;4.50
26185;PMS7003;20067;48.764;9.176;2022-08-01T03:34:56;11.75;10.00;4.25
26185;PMS7003;20067;48.764;9.176;2022-08-01T03:37:24;11.00;8.25;3.50
26185;PMS7003;20067;48.764;9.176;2022-08-01T03:40:05;9.50;8.25;3.75
26185;PMS7003;20067;48.764;9.176;2022-08-01T03:42:39;8.75;8.50;3.50
26185;PMS7003;20067;48.764;9.176;2022-08-01T03:45:10;8.75;8.75;4.00
26185;PMS7003;20067;48.764;9.176;2022-08-01T03:47:42;8.50;8.00;3.00
26185;PMS7003;20067;48.764;9.176;2022-08-01T03:50:09;8.25;8.25;4.00
26185;PMS7003;20067;48.764;9.176;2022-08-01T03:52:38;8.75;8.75;3.50
26185;PMS7003;20067;48.764;9.176;2022-08-01T03:55:05;9.00;8.00;4.00
26185;PMS7003;20067;48.764;9.176;2022-08-01T03:57:33;10.00;9.25;4.50
26185;PMS7003;20067;48.764;9.176;2022-08-01T03:59:59;8.00;8.00;4.00
26185;PMS7003;20067;48.764;9.176;2022-08-01T04:02:28;8.00;8.00;4.00
26185;PMS7003;20067;48.764;9.176;2022-08-01T04:04:54;7.50;7.50;3.25
26185;PMS7003;20067;48.764;9.176;2022-08-01T04:07:24;9.00;9.00;3.75
26185;PMS7003;20067;48.764;9.176;2022-08-01T04:09:54;6.50;5.00;2.00
26185;PMS7003;20067;48.764;9.176;2022-08-01T04:12:20;9.00;8.00;4.00
26185;PMS7003;20067;48.764;9.176;2022-08-01T04:14:46;8.75;8.00;3.00
26185;PMS7003;20067;48.764;9.176;2022-08-01T04:17:13;8.25;8.25;3.00
26185;PMS7003;20067;48.764;9.176;2022-08-01T04:19:42;9.75;8.50;4.50
26185;PMS7003;20067;48.764;9.176;2022-08-01T04:22:09;9.00;8.00;3.00
26185;PMS7003;20067;48.764;9.176;2022-08-01T04:24:36;10.25;9.50;3.50
26185;PMS7003;20067;48.764;9.176;2022-08-01T04:27:04;8.00;8.00;4.00
26185;PMS7003;20067;48.764;9.176;2022-08-01T04:29:34;9.00;8.00;4.00
26185;PMS7003;20067;48.764;9.176;2022-08-01T04:32:02;8.75;8.50;3.75
26185;PMS7003;20067;48.764;9.176;2022-08-01T04:34:30;8.00;7.00;3.00
26185;PMS7003;20067;48.764;9.176;2022-08-01T04:36:56;7.75;7.75;3.00
26185;PMS7003;20067;48.764;9.176;2022-08-01T04:39:25;8.75;8.75;4.00
26185;PMS7003;20067;48.764;9.176;2022-08-01T04:41:53;8.00;8.00;3.00
26185;PMS7003;20067;48.764;9.176;2022-08-01T04:44:23;7.75;7.75;3.00
26185;PMS7003;20067;48.764;9.176;2022-08-01T04:46:50;7.00;7.00;3.25
26185;PMS7003;20067;48.764;9.176;2022-08-01T04:49:19;9.00;7.25;3.25
26185;PMS7003;20067;48.764;9.176;2022-08-01T04:51:49;7.50;7.50;4.00
26185;PMS7003;20067;48.764;9.176;2022-08-01T04:54:33;9.00;9.00;3.00
26185;PMS7003;20067;48.764;9.176;2022-08-01T04:57:02;8.00;7.50;3.50
26185;PMS7003;20067;48.764;9.176;2022-08-01T04:59:29;7.00;7.00;3.00
26185;PMS7003;20067;48.764;9.176;2022-08-01T05:02:14;7.75;7.75;2.75
26185;PMS7003;20067;48.764;9.176;2022-08-01T05:04:41;8.25;7.75;3.00
26185;PMS7003;20067;48.764;9.176;2022-08-01T05:07:08;8.00;7.00;2.50
26185;PMS7003;20067;48.764;9.176;2022-08-01T05:09:35;8.50;7.25;3.25
26185;PMS7003;20067;48.764;9.176;2022-08-01T05:12:01;9.00;8.00;3.00
26185;PMS7003;20067;48.764;9.176;2022-08-01T05:14:28;7.00;7.00;2.00
26185;PMS7003;20067;48.764;9.176;2022-08-01T05:16:57;8.00;8.00;3.00
26185;PMS7003;20067;48.764;9.176;2022-08-01T05:19:30;7.50;7.50;3.00
26185;PMS7003;20067;48.764;9.176;2022-08-01T05:21:59;9.00;7.00;3.00
26185;PMS7003;20067;48.764;9.176;2022-08-01T05:24:29;8.00;7.00;3.00
26185;PMS7003;20067;48.764;9.176;2022-08-01T05:26:56;8.75;8.50;3.75
26185;PMS7003;20067;48.764;9.176;2022-08-01T05:29:22;9.75;7.00;3.00
26185;PMS7003;20067;48.764;9.176;2022-08-01T05:31:48;8.00;8.00;3.50
26185;PMS7003;20067;48.764;9.176;2022-08-01T05:34:14;9.75;8.00;3.50
26185;PMS7003;20067;48.764;9.176;2022-08-01T05:36:39;6.50;6.50;3.00
26185;PMS7003;20067;48.764;9.176;2022-08-01T05:39:05;9.00;7.00;3.00
26185;PMS7003;20067;48.764;9.176;2022-08-01T05:41:31;8.00;8.00;3.00
26185;PMS7003;20067;48.764;9.176;2022-08-01T05:43:56;8.00;7.00;2.00
26185;PMS7003;20067;48.764;9.176;2022-08-01T05:46:22;7.50;7.00;3.25
26185;PMS7003;20067;48.764;9.176;2022-08-01T05:48:48;5.50;5.50;2.50
26185;PMS7003;20067;48.764;9.176;2022-08-01T05:51:14;7.00;7.00;2.50
26185;PMS7003;20067;48.764;9.176;2022-08-01T05:53:45;8.75;8.00;3.00
26185;PMS7003;20067;48.764;9.176;2022-08-01T05:56:10;7.25;6.75;2.75
26185;PMS7003;20067;48.764;9.176;2022-08-01T05:58:36;7.50;7.50;3.00
26185;PMS7003;20067;48.764;9.176;2022-08-01T06:01:01;8.25;7.00;3.00
26185;PMS7003;20067;48.764;9.176;2022-08-01T06:03:27;7.50;7.50;3.00
26185;PMS7003;20067;48.764;9.176;2022-08-01T06:05:56;8.50;5.50;2.25
26185;PMS7003;20067;48.764;9.176;2022-08-01T06:08:22;7.50;7.50;3.75
26185;PMS7003;20067;48.764;9.176;2022-08-01T06:10:48;5.00;5.00;2.00
26185;PMS7003;20067;48.764;9.176;2022-08-01T06:13:13;7.25;7.00;2.00
26185;PMS7003;20067;48.764;9.176;2022-08-01T06:15:39;6.00;5.00;3.00
26185;PMS7003;20067;48.764;9.176;2022-08-01T06:18:05;6.25;5.25;2.00
26185;PMS7003;20067;48.764;9.176;2022-08-01T06:20:31;4.00;4.00;1.00
26185;PMS7003;20067;48.764;9.176;2022-08-01T06:22:56;6.00;5.25;2.25
26185;PMS7003;20067;48.764;9.176;2022-08-01T06:25:22;5.00;4.50;2.00
26185;PMS7003;20067;48.764;9.176;2022-08-01T06:27:48;4.75;4.00;2.00
26185;PMS7003;20067;48.764;9.176;2022-08-01T06:30:14;5.00;5.00;2.00
26185;PMS7003;20067;48.764;9.176;2022-08-01T06:32:40;4.75;4.00;1.00
26185;PMS7003;20067;48.764;9.176;2022-08-01T06:35:06;5.00;5.00;2.25
26185;PMS7003;20067;48.764;9.176;2022-08-01T06:37:32;4.50;4.00;1.00
26185;PMS7003;20067;48.764;9.176;2022-08-01T06:40:05;5.00;4.75;2.00
26185;PMS7003;20067;48.764;9.176;2022-08-01T06:42:34;5.50;5.00;2.00
26185;PMS7003;20067;48.764;9.176;2022-08-01T06:45:02;4.75;4.75;2.50
26185;PMS7003;20067;48.764;9.176;2022-08-01T06:47:28;4.00;4.00;1.00
26185;PMS7003;20067;48.764;9.176;2022-08-01T06:49:54;4.00;4.00;1.75
26185;PMS7003;20067;48.764;9.176;2022-08-01T06:52:20;4.75;4.75;1.50
26185;PMS7003;20067;48.764;9.176;2022-08-01T06:54:45;5.75;5.00;2.00
26185;PMS7003;20067;48.764;9.176;2022-08-01T06:57:11;5.00;5.00;2.00
26185;PMS7003;20067;48.764;9.176;2022-08-01T06:59:37;5.25;5.00;2.00
26185;PMS7003;20067;48.764;9.176;2022-08-01T07:02:03;4.75;4.75;2.50
26185;PMS7003;20067;48.764;9.176;2022-08-01T07:04:28;4.50;4.50;2.00
26185;PMS7003;20067;48.764;9.176;2022-08-01T07:06:55;4.00;4.00;1.25
26185;PMS7003;20067;48.764;9.176;2022-08-01T07:09:21;5.00;4.00;1.75
26185;PMS7003;20067;48.764;9.176;2022-08-01T07:11:46;6.00;5.00;2.25
26185;PMS7003;20067;48.764;9.176;2022-08-01T07:14:12;6.00;6.00;2.25
26185;PMS7003;20067;48.764;9.176;2022-08-01T07:16:37;5.00;5.00;2.00
26185;PMS7003;20067;48.764;9.176;2022-08-01T07:19:03;5.25;4.00;1.00
26185;PMS7003;20067;48.764;9.176;2022-08-01T07:21:29;5.00;5.00;2.00
26185;PMS7003;20067;48.764;9.176;2022-08-01T07:23:55;5.00;5.00;1.00
26185;PMS7003;20067;48.764;9.176;2022-08-01T07:26:21;5.00;5.00;2.00
26185;PMS7003;20067;48.764;9.176;2022-08-01T07:28:46;6.25;6.25;2.75
26185;PMS7003;20067;48.764;9.176;2022-08-01T07:31:12;4.00;4.00;1.00
26185;PMS7003;20067;48.764;9.176;2022-08-01T07:33:37;7.75;5.50;2.00
26185;PMS7003;20067;48.764;9.176;2022-08-01T07:36:03;5.25;5.25;2.25
26185;PMS7003;20067;48.764;9.176;2022-08-01T07:38:29;4.50;4.50;2.00
26185;PMS7003;20067;48.764;9.176;2022-08-01T07:40:54;5.00;5.00;1.75
26185;PMS7003;20067;48.764;9.176;2022-08-01T07:43:20;6.75;5.25;2.25
26185;PMS7003;20067;48.764;9.176;2022-08-01T07:45:46;7.50;7.00;2.25
26185;PMS7003;20067;48.764;9.176;2022-08-01T07:48:11;5.75;5.00;1.50
26185;PMS7003;20067;48.764;9.176;2022-08-01T07:50:37;5.75;5.00;2.00
26185;PMS7003;20067;48.764;9.176;2022-08-01T07:53:03;6.00;5.50;3.00
26185;PMS7003;20067;48.764;9.176;2022-08-01T07:55:29;5.00;4.50;2.00
26185;PMS7003;20067;48.764;9.176;2022-08-01T07:57:55;5.00;5.00;2.00
26185;PMS7003;20067;48.764;9.176;2022-08-01T08:00:21;10.75;9.50;5.75
26185;PMS7003;20067;48.764;9.176;2022-08-01T08:02:46;7.75;6.25;3.00
26185;PMS7003;20067;48.764;9.176;2022-08-01T08:05:12;4.50;4.50;2.00
26185;PMS7003;20067;48.764;9.176;2022-08-01T08:07:38;6.00;5.00;2.00
26185;PMS7003;20067;48.764;9.176;2022-08-01T08:10:04;5.75;5.75;2.75
26185;PMS7003;20067;48.764;9.176;2022-08-01T08:12:30;5.00;5.00;2.00
26185;PMS7003;20067;48.764;9.176;2022-08-01T08:14:56;7.50;6.25;3.00
26185;PMS7003;20067;48.764;9.176;2022-08-01T08:17:25;6.00;5.75;2.50
26185;PMS7003;20067;48.764;9.176;2022-08-01T08:19:52;6.00;5.00;2.25
26185;PMS7003;20067;48.764;9.176;2022-08-01T08:22:18;5.25;5.25;2.00
26185;PMS7003;20067;48.764;9.176;2022-08-01T08:24:43;6.75;6.75;3.25
26185;PMS7003;20067;48.764;9.176;2022-08-01T08:27:09;6.25;5.75;2.00
26185;PMS7003;20067;48.764;9.176;2022-08-01T08:29:35;5.00;5.00;2.00
26185;PMS7003;20067;48.764;9.176;2022-08-01T08:32:01;6.00;5.75;3.00
26185;PMS7003;20067;48.764;9.176;2022-08-01T08:34:27;9.50;7.75;3.00
26185;PMS7003;20067;48.764;9.176;2022-08-01T08:36:56;5.00;5.00;2.00
26185;PMS7003;20067;48.764;9.176;2022-08-01T08:39:23;6.50;6.50;2.75
26185;PMS7003;20067;48.764;9.176;2022-08-01T08:41:48;7.00;6.00;3.00
26185;PMS7003;20067;48.764;9.176;2022-08-01T08:44:14;6.50;6.50;3.00
26185;PMS7003;20067;48.764;9.176;2022-08-01T08:46:42;9.25;7.00;3.00
26185;PMS7003;20067;48.764;9.176;2022-08-01T08:49:13;7.00;7.00;3.00
26185;PMS7003;20067;48.764;9.176;2022-08-01T08:51:42;9.00;7.50;3.25
26185;PMS7003;20067;48.764;9.176;2022-08-01T08:54:12;9.75;9.50;5.00
26185;PMS7003;20067;48.764;9.176;2022-08-01T08:56:38;7.25;6.50;3.00
26185;PMS7003;20067;48.764;9.176;2022-08-01T08:59:05;8.25;7.00;3.50
26185;PMS7003;20067;48.764;9.176;2022-08-01T09:01:31;7.00;6.50;3.00
26185;PMS7003;20067;48.764;9.176;2022-08-01T09:03:58;7.25;6.25;3.00
26185;PMS7003;20067;48.764;9.176;2022-08-01T09:06:24;7.00;5.50;2.75
26185;PMS7003;20067;48.764;9.176;2022-08-01T09:08:50;8.00;8.00;3.00
26185;PMS7003;20067;48.764;9.176;2022-08-01T09:11:16;8.75;8.00;4.00
26185;PMS7003;20067;48.764;9.176;2022-08-01T09:13:42;8.00;8.00;4.00
26185;PMS7003;20067;48.764;9.176;2022-08-01T09:16:30;9.50;8.25;4.25
26185;PMS7003;20067;48.764;9.176;2022-08-01T09:19:07;9.75;9.00;5.00
26185;PMS7003;20067;48.764;9.176;2022-08-01T09:22:03;7.75;7.50;4.25
26185;PMS7003;20067;48.764;9.176;2022-08-01T09:24:31;9.00;9.00;5.75
26185;PMS7003;20067;48.764;9.176;2022-08-01T09:26:58;9.25;9.25;5.00
26185;PMS7003;20067;48.764;9.176;2022-08-01T09:29:25;11.25;10.75;6.00
26185;PMS7003;20067;48.764;9.176;2022-08-01T09:31:53;14.50;11.25;6.25
26185;PMS7003;20067;48.764;9.176;2022-08-01T09:34:26;12.75;12.50;8.00
26185;PMS7003;20067;48.764;9.176;2022-08-01T09:36:57;16.00;16.00;11.00
26185;PMS7003;20067;48.764;9.176;2022-08-01T09:39:34;16.25;13.25;9.00
26185;PMS7003;20067;48.764;9.176;2022-08-01T09:42:18;14.25;13.50;9.00
26185;PMS7003;20067;48.764;9.176;2022-08-01T09:44:44;18.00;17.75;11.00
26185;PMS7003;20067;48.764;9.176;2022-08-01T09:47:10;20.25;20.25;13.75
26185;PMS7003;20067;48.764;9.176;2022-08-01T09:49:38;16.25;16.00;11.00
26185;PMS7003;20067;48.764;9.176;2022-08-01T09:54:37;14.50;12.00;8.00
26185;PMS7003;20067;48.764;9.176;2022-08-01T09:57:16;10.75;10.50;6.00
26185;PMS7003;20067;48.764;9.176;2022-08-01T09:59:46;14.00;13.50;8.50
26185;PMS7003;20067;48.764;9.176;2022-08-01T10:02:14;14.00;13.50;9.00
26185;PMS7003;20067;48.764;9.176;2022-08-01T10:04:53;16.00;14.25;9.50
26185;PMS7003;20067;48.764;9.176;2022-08-01T10:07:19;12.25;11.75;7.00
26185;PMS7003;20067;48.764;9.176;2022-08-01T10:09:46;15.75;14.75;8.75
26185;PMS7003;20067;48.764;9.176;2022-08-01T10:12:13;14.50;13.75;9.00
26185;PMS7003;20067;48.764;9.176;2022-08-01T10:14:41;16.50;15.75;9.00
26185;PMS7003;20067;48.764;9.176;2022-08-01T10:17:09;13.75;13.25;8.25
26185;PMS7003;20067;48.764;9.176;2022-08-01T10:19:42;15.75;15.00;8.50
26185;PMS7003;20067;48.764;9.176;2022-08-01T10:22:09;13.50;12.00;8.00
26185;PMS7003;20067;48.764;9.176;2022-08-01T10:24:42;13.75;12.00;8.25
26185;PMS7003;20067;48.764;9.176;2022-08-01T10:27:11;12.50;12.50;8.00
26185;PMS7003;20067;48.764;9.176;2022-08-01T10:32:29;12.75;11.50;7.00
26185;PMS7003;20067;48.764;9.176;2022-08-01T10:34:57;12.50;12.00;8.00
26185;PMS7003;20067;48.764;9.176;2022-08-01T10:37:24;13.00;11.00;7.00
26185;PMS7003;20067;48.764;9.176;2022-08-01T10:39:53;10.50;10.25;7.00
26185;PMS7003;20067;48.764;9.176;2022-08-01T10:42:19;11.75;11.75;7.00
26185;PMS7003;20067;48.764;9.176;2022-08-01T10:44:46;12.50;10.50;6.00
26185;PMS7003;20067;48.764;9.176;2022-08-01T10:47:21;10.25;9.25;5.75
26185;PMS7003;20067;48.764;9.176;2022-08-01T10:50:07;12.75;11.25;6.75
26185;PMS7003;20067;48.764;9.176;2022-08-01T10:52:37;12.75;11.75;7.75
26185;PMS7003;20067;48.764;9.176;2022-08-01T10:55:03;12.00;12.00;8.00
26185;PMS7003;20067;48.764;9.176;2022-08-01T10:57:43;10.50;10.00;6.50
26185;PMS7003;20067;48.764;9.176;2022-08-01T11:00:13;9.00;9.00;6.00
26185;PMS7003;20067;48.764;9.176;2022-08-01T11:02:43;11.00;10.50;6.00
26185;PMS7003;20067;48.764;9.176;2022-08-01T11:05:26;10.75;9.50;5.00
26185;PMS7003;20067;48.764;9.176;2022-08-01T11:07:55;15.25;14.50;9.50
26185;PMS7003;20067;48.764;9.176;2022-08-01T11:13:03;13.25;11.50;7.00
26185;PMS7003;20067;48.764;9.176;2022-08-01T11:15:32;14.00;14.00;10.00
26185;PMS7003;20067;48.764;9.176;2022-08-01T11:17:59;15.00;14.00;10.00
26185;PMS7003;20067;48.764;9.176;2022-08-01T11:20:27;13.00;11.00;7.00
26185;PMS7003;20067;48.764;9.176;2022-08-01T11:25:27;14.75;14.00;9.00
26185;PMS7003;20067;48.764;9.176;2022-08-01T11:30:42;13.00;13.00;9.50
26185;PMS7003;20067;48.764;9.176;2022-08-01T11:33:08;11.75;11.75;7.00
26185;PMS7003;20067;48.764;9.176;2022-08-01T11:35:34;12.25;11.75;7.00
26185;PMS7003;20067;48.764;9.176;2022-08-01T11:46:45;11.00;10.00;6.75
26185;PMS7003;20067;48.764;9.176;2022-08-01T11:49:42;12.00;10.00;7.00
26185;PMS7003;20067;48.764;9.176;2022-08-01T11:52:14;10.75;10.50;6.75
26185;PMS7003;20067;48.764;9.176;2022-08-01T11:57:31;9.00;9.00;6.00
26185;PMS7003;20067;48.764;9.176;2022-08-01T12:00:00;10.75;10.00;6.75
26185;PMS7003;20067;48.764;9.176;2022-08-01T12:02:44;12.00;11.00;6.00
26185;PMS7003;20067;48.764;9.176;2022-08-01T12:05:14;12.50;10.50;6.50
26185;PMS7003;20067;48.764;9.176;2022-08-01T12:07:43;10.25;10.25;6.50
26185;PMS7003;20067;48.764;9.176;2022-08-01T12:10:12;10.75;10.50;6.00
26185;PMS7003;20067;48.764;9.176;2022-08-01T12:12:43;11.50;10.25;7.00
26185;PMS7003;20067;48.764;9.176;2022-08-01T12:15:15;9.00;9.00;6.00
26185;PMS7003;20067;48.764;9.176;2022-08-01T12:20:12;11.50;10.50;7.25
26185;PMS7003;20067;48.764;9.176;2022-08-01T12:22:40;9.00;9.00;6.00
26185;PMS7003;20067;48.764;9.176;2022-08-01T12:27:40;11.00;10.25;7.00
26185;PMS7003;20067;48.764;9.176;2022-08-01T12:30:08;9.00;9.00;6.00
26185;PMS7003;20067;48.764;9.176;2022-08-01T12:32:36;10.25;9.00;5.00
26185;PMS7003;20067;48.764;9.176;2022-08-01T12:35:13;10.00;9.50;6.25
26185;PMS7003;20067;48.764;9.176;2022-08-01T12:37:47;10.00;10.00;7.00
26185;PMS7003;20067;48.764;9.176;2022-08-01T12:40:20;15.00;13.00;9.00
26185;PMS7003;20067;48.764;9.176;2022-08-01T12:42:58;15.00;13.00;8.50
26185;PMS7003;20067;48.764;9.176;2022-08-01T12:45:25;14.25;14.25;10.00
26185;PMS7003;20067;48.764;9.176;2022-08-01T12:47:53;10.25;10.25;7.00
26185;PMS7003;20067;48.764;9.176;2022-08-01T12:50:20;9.75;9.75;7.00
26185;PMS7003;20067;48.764;9.176;2022-08-01T12:52:49;10.00;10.00;7.00
26185;PMS7003;20067;48.764;9.176;2022-08-01T12:55:18;10.75;10.25;7.50
26185;PMS7003;20067;48.764;9.176;2022-08-01T12:57:50;11.00;10.00;6.00
26185;PMS7003;20067;48.764;9.176;2022-08-01T13:00:28;10.00;10.00;6.25
26185;PMS7003;20067;48.764;9.176;2022-08-01T13:03:04;10.00;9.25;5.25
26185;PMS7003;20067;48.764;9.176;2022-08-01T13:08:09;9.75;9.75;6.00
26185;PMS7003;20067;48.764;9.176;2022-08-01T13:10:36;9.50;8.00;4.25
26185;PMS7003;20067;48.764;9.176;2022-08-01T13:13:02;9.75;9.75;6.75
26185;PMS7003;20067;48.764;9.176;2022-08-01T13:15:31;7.75;7.75;4.00
26185;PMS7003;20067;48.764;9.176;2022-08-01T13:18:00;9.25;8.75;4.50
26185;PMS7003;20067;48.764;9.176;2022-08-01T13:20:46;10.50;9.00;6.00
26185;PMS7003;20067;48.764;9.176;2022-08-01T13:25:46;12.00;10.25;7.00
26185;PMS7003;20067;48.764;9.176;2022-08-01T13:28:16;9.75;9.00;5.00
26185;PMS7003;20067;48.764;9.176;2022-08-01T13:33:42;8.00;8.00;5.00
26185;PMS7003;20067;48.764;9.176;2022-08-01T13:36:13;11.00;10.00;6.00
26185;PMS7003;20067;48.764;9.176;2022-08-01T13:38:39;9.00;8.00;4.00
26185;PMS7003;20067;48.764;9.176;2022-08-01T13:41:25;7.00;7.00;3.75
26185;PMS7003;20067;48.764;9.176;2022-08-01T13:43:50;9.50;9.50;5.50
26185;PMS7003;20067;48.764;9.176;2022-08-01T13:46:16;8.00;8.00;4.50
26185;PMS7003;20067;48.764;9.176;2022-08-01T13:48:43;8.75;7.75;4.00
26185;PMS7003;20067;48.764;9.176;2022-08-01T13:51:08;8.00;8.00;5.00
26185;PMS7003;20067;48.764;9.176;2022-08-01T13:53:35;10.00;9.00;4.75
26185;PMS7003;20067;48.764;9.176;2022-08-01T13:56:01;6.00;6.00;3.00
26185;PMS7003;20067;48.764;9.176;2022-08-01T13:58:26;7.75;7.75;4.75
26185;PMS7003;20067;48.764;9.176;2022-08-01T14:00:53;7.25;7.25;4.00
26185;PMS7003;20067;48.764;9.176;2022-08-01T14:03:20;6.25;5.25;2.25
26185;PMS7003;20067;48.764;9.176;2022-08-01T14:05:46;8.00;7.00;3.00
26185;PMS7003;20067;48.764;9.176;2022-08-01T14:08:12;7.00;6.50;3.00
26185;PMS7003;20067;48.764;9.176;2022-08-01T14:10:38;6.75;6.00;3.00
26185;PMS7003;20067;48.764;9.176;2022-08-01T14:13:03;6.25;5.00;2.00
26185;PMS7003;20067;48.764;9.176;2022-08-01T14:15:29;6.00;6.00;3.00
26185;PMS7003;20067;48.764;9.176;2022-08-01T14:17:56;6.00;6.00;3.25
26185;PMS7003;20067;48.764;9.176;2022-08-01T14:20:22;7.00;7.00;3.75
26185;PMS7003;20067;48.764;9.176;2022-08-01T14:22:48;7.00;7.00;4.25
26185;PMS7003;20067;48.764;9.176;2022-08-01T14:25:14;8.00;7.50;4.50
26185;PMS7003;20067;48.764;9.176;2022-08-01T14:27:40;6.00;6.00;3.00
26185;PMS7003;20067;48.764;9.176;2022-08-01T14:30:07;7.75;7.25;4.00
26185;PMS7003;20067;48.764;9.176;2022-08-01T14:32:33;8.00;7.50;4.00
26185;PMS7003;20067;48.764;9.176;2022-08-01T14:34:59;8.25;8.25;4.75
26185;PMS7003;20067;48.764;9.176;2022-08-01T14:37:28;8.25;8.00;4.25
26185;PMS7003;20067;48.764;9.176;2022-08-01T14:39:55;9.00;8.00;3.75
26185;PMS7003;20067;48.764;9.176;2022-08-01T14:42:22;8.75;8.75;5.00
26185;PMS7003;20067;48.764;9.176;2022-08-01T14:44:47;8.00;8.00;5.00
26185;PMS7003;20067;48.764;9.176;2022-08-01T14:47:13;8.00;8.00;4.25
26185;PMS7003;20067;48.764;9.176;2022-08-01T14:49:38;7.25;7.25;3.75
26185;PMS7003;20067;48.764;9.176;2022-08-01T14:52:04;9.00;8.00;5.00
26185;PMS7003;20067;48.764;9.176;2022-08-01T14:54:30;8.75;7.50;5.00
26185;PMS7003;20067;48.764;9.176;2022-08-01T14:56:55;9.50;9.00;5.25
26185;PMS7003;20067;48.764;9.176;2022-08-01T14:59:21;6.25;6.00;3.75
26185;PMS7003;20067;48.764;9.176;2022-08-01T15:01:47;7.50;7.50;4.50
26185;PMS7003;20067;48.764;9.176;2022-08-01T15:04:12;8.75;7.00;4.00
26185;PMS7003;20067;48.764;9.176;2022-08-01T15:06:38;9.00;8.00;4.00
26185;PMS7003;20067;48.764;9.176;2022-08-01T15:09:04;8.00;7.50;4.00